createdAt,value
2022-09-19T00:00:14.702Z,96772.72
2022-09-19T00:02:16.490Z,96769.88
2022-09-19T00:04:26.263Z,96764.97
2022-09-19T00:06:28.367Z,96757.97
2022-09-19T00:08:30.089Z,96749.31
2022-09-19T00:10:31.839Z,96742.75
2022-09-19T00:12:33.489Z,96733.25
2022-09-19T00:14:35.430Z,96733.03
2022-09-19T00:16:38.994Z,96737.56
2022-09-19T00:18:40.727Z,96735.72
2022-09-19T00:20:43.412Z,96744.41
2022-09-19T00:22:45.106Z,96739.88
2022-09-19T00:24:46.826Z,96733.53
2022-09-19T00:26:48.732Z,96731.69
2022-09-19T00:28:50.521Z,96725.50
2022-09-19T00:30:52.224Z,96729.00
2022-09-19T00:32:54.008Z,96725.50
2022-09-19T00:34:55.679Z,96719.50
2022-09-19T00:36:57.444Z,96721.16
2022-09-19T00:38:59.107Z,96722.16
2022-09-19T00:41:00.887Z,96721.16
2022-09-19T00:43:02.562Z,96707.75
2022-09-19T00:45:07.889Z,96714.78
2022-09-19T00:47:17.833Z,96707.75
2022-09-19T00:49:19.573Z,96706.13
2022-09-19T00:51:29.534Z,96704.47
2022-09-19T00:53:31.272Z,96694.75
2022-09-19T00:55:33.020Z,96686.56
2022-09-19T00:57:54.201Z,96686.75
2022-09-19T00:59:55.873Z,96694.75
2022-09-19T01:01:57.686Z,96690.44
2022-09-19T01:03:59.387Z,96695.78
2022-09-19T01:06:07.486Z,96683.41
2022-09-19T01:08:59.914Z,96672.72
2022-09-19T01:11:09.070Z,96674.38
2022-09-19T01:13:10.741Z,96667.00
2022-09-19T01:15:37.116Z,96664.97
2022-09-19T01:17:46.175Z,96666.63
2022-09-19T01:19:59.626Z,96666.63
2022-09-19T01:22:18.061Z,96662.09
2022-09-19T01:24:32.877Z,96659.25
2022-09-19T01:26:34.363Z,96663.78
2022-09-19T01:28:37.845Z,96666.25
2022-09-19T01:30:48.492Z,96671.63
2022-09-19T01:33:04.811Z,96665.44
2022-09-19T01:35:08.745Z,96670.63
2022-09-19T01:37:27.026Z,96661.72
2022-09-19T01:39:28.840Z,96660.91
2022-09-19T01:41:30.827Z,96665.25
2022-09-19T01:43:32.529Z,96660.91
2022-09-19T01:45:35.947Z,96662.59
2022-09-19T01:47:43.653Z,96660.91
2022-09-19T01:50:06.010Z,96658.22
2022-09-19T01:52:29.281Z,96655.56
2022-09-19T01:54:34.245Z,96650.22
2022-09-19T01:56:50.765Z,96644.03
2022-09-19T01:59:21.724Z,96639.50
2022-09-19T02:01:42.368Z,96644.69
2022-09-19T02:04:26.096Z,96634.16
2022-09-19T02:06:27.611Z,96637.66
2022-09-19T02:08:34.100Z,96633.31
2022-09-19T02:10:49.235Z,96630.81
2022-09-19T02:12:52.226Z,96631.84
2022-09-19T02:14:54.300Z,96621.16
2022-09-19T02:17:05.693Z,96628.16
2022-09-19T02:19:14.421Z,96619.31
2022-09-19T02:21:20.073Z,96619.31
2022-09-19T02:23:24.821Z,96609.78
2022-09-19T02:25:28.827Z,96603.63
2022-09-19T02:27:36.017Z,96621.31
2022-09-19T02:29:41.774Z,96621.31
2022-09-19T02:31:43.558Z,96607.13
2022-09-19T02:33:45.276Z,96622.16
2022-09-19T02:35:56.174Z,96613.50
2022-09-19T02:38:00.292Z,96626.88
2022-09-19T02:40:19.156Z,96618.84
2022-09-19T02:42:41.878Z,96606.47
2022-09-19T02:45:04.958Z,96606.47
2022-09-19T02:47:15.384Z,96605.47
2022-09-19T02:49:27.038Z,96597.44
2022-09-19T02:51:36.170Z,96607.28
2022-09-19T02:53:45.581Z,96608.97
2022-09-19T02:55:49.762Z,96608.16
2022-09-19T02:57:52.258Z,96599.91
2022-09-19T02:59:54.522Z,96593.75
2022-09-19T03:01:58.657Z,96593.38
2022-09-19T03:04:06.574Z,96593.38
2022-09-19T03:06:08.326Z,96591.53
2022-09-19T03:08:10.003Z,96583.53
2022-09-19T03:10:13.521Z,96583.69
2022-09-19T03:12:36.501Z,96584.69
2022-09-19T03:14:38.263Z,96585.53
2022-09-19T03:16:41.836Z,96582.22
2022-09-19T03:18:44.587Z,96584.25
2022-09-19T03:20:54.400Z,96586.09
2022-09-19T03:22:56.044Z,96581.75
2022-09-19T03:24:57.789Z,96580.91
2022-09-19T03:26:59.496Z,96579.72
2022-09-19T03:29:02.223Z,96575.19
2022-09-19T03:31:03.935Z,96582.22
2022-09-19T03:33:05.645Z,96578.50
2022-09-19T03:35:08.443Z,96575.66
2022-09-19T03:37:10.176Z,96574.00
2022-09-19T03:39:11.873Z,96580.53
2022-09-19T03:41:17.422Z,96569.84
2022-09-19T03:43:19.058Z,96575.41
2022-09-19T03:45:20.780Z,96580.53
2022-09-19T03:47:22.559Z,96568.38
2022-09-19T03:49:24.217Z,96569.41
2022-09-19T03:51:25.931Z,96558.31
2022-09-19T03:53:27.942Z,96562.03
2022-09-19T03:55:29.644Z,96556.00
2022-09-19T03:57:31.343Z,96556.91
2022-09-19T03:59:33.030Z,96557.94
2022-09-19T04:01:34.739Z,96558.59
2022-09-19T04:03:37.272Z,96546.97
2022-09-19T04:05:39.132Z,96548.72
2022-09-19T04:07:40.795Z,96554.44
2022-09-19T04:09:42.440Z,96565.81
2022-09-19T04:11:44.120Z,96547.63
2022-09-19T04:13:45.810Z,96551.50
2022-09-19T04:15:47.701Z,96559.59
2022-09-19T04:17:49.375Z,96553.91
2022-09-19T04:19:51.110Z,96569.03
2022-09-19T04:21:54.161Z,96566.25
2022-09-19T04:23:55.883Z,96564.13
2022-09-19T04:25:57.628Z,96570.69
2022-09-19T04:27:59.390Z,96568.38
2022-09-19T04:30:01.148Z,96575.66
2022-09-19T04:32:03.167Z,96570.84
2022-09-19T04:34:07.908Z,96567.44
2022-09-19T04:36:09.609Z,96565.63
2022-09-19T04:38:18.048Z,96567.94
2022-09-19T04:40:19.810Z,96573.44
2022-09-19T04:42:21.509Z,96571.97
2022-09-19T04:44:23.134Z,96567.81
2022-09-19T04:46:24.918Z,96579.91
2022-09-19T04:48:26.566Z,96564.22
2022-09-19T04:50:28.224Z,96572.09
2022-09-19T04:52:29.886Z,96576.94
2022-09-19T04:54:31.538Z,96575.66
2022-09-19T04:56:33.500Z,96579.34
2022-09-19T04:58:35.172Z,96580.34
2022-09-19T05:00:37.017Z,96589.41
2022-09-19T05:02:38.826Z,96576.41
2022-09-19T05:04:42.777Z,96584.22
2022-09-19T05:06:47.348Z,96579.72
2022-09-19T05:08:49.155Z,96560.34
2022-09-19T05:10:50.907Z,96585.06
2022-09-19T05:12:52.952Z,96576.03
2022-09-19T05:14:54.761Z,96573.34
2022-09-19T05:16:56.413Z,96561.81
2022-09-19T05:18:58.056Z,96582.41
2022-09-19T05:21:06.554Z,96584.59
2022-09-19T05:23:08.199Z,96582.09
2022-09-19T05:25:09.929Z,96578.41
2022-09-19T05:27:11.566Z,96578.41
2022-09-19T05:29:13.459Z,96566.25
2022-09-19T05:31:15.177Z,96569.75
2022-09-19T05:33:16.887Z,96569.75
2022-09-19T05:35:18.948Z,96582.09
2022-09-19T05:37:20.615Z,96571.78
2022-09-19T05:39:22.362Z,96570.78
2022-09-19T05:41:24.060Z,96578.78
2022-09-19T05:43:25.916Z,96561.06
2022-09-19T05:45:27.782Z,96577.78
2022-09-19T05:47:29.537Z,96581.75
2022-09-19T05:49:31.287Z,96586.91
2022-09-19T05:51:32.936Z,96570.19
2022-09-19T05:53:34.594Z,96595.13
2022-09-19T05:55:36.338Z,96586.56
2022-09-19T05:57:38.023Z,96592.06
2022-09-19T05:59:39.684Z,96579.91
2022-09-19T06:01:41.467Z,96590.75
2022-09-19T06:03:43.243Z,96589.13
2022-09-19T06:05:45.825Z,96582.09
2022-09-19T06:07:47.472Z,96585.41
2022-09-19T06:09:49.089Z,96576.56
2022-09-19T06:11:50.735Z,96578.41
2022-09-19T06:13:52.401Z,96580.06
2022-09-19T06:15:54.110Z,96576.56
2022-09-19T06:17:56.558Z,96578.88
2022-09-19T06:19:58.318Z,96581.38
2022-09-19T06:21:59.990Z,96588.75
2022-09-19T06:24:01.900Z,96574.72
2022-09-19T06:26:03.623Z,96575.53
2022-09-19T06:28:07.029Z,96583.41
2022-09-19T06:30:09.217Z,96574.38
2022-09-19T06:32:10.965Z,96575.38
2022-09-19T06:34:12.583Z,96585.06
2022-09-19T06:36:14.227Z,96579.72
2022-09-19T06:38:15.867Z,96579.72
2022-09-19T06:40:17.993Z,96595.78
2022-09-19T06:42:19.738Z,96587.28
2022-09-19T06:44:21.409Z,96579.25
2022-09-19T06:46:23.054Z,96579.25
2022-09-19T06:48:24.771Z,96589.56
2022-09-19T06:50:26.967Z,96597.78
2022-09-19T06:52:28.882Z,96588.63
2022-09-19T06:54:30.604Z,96605.88
2022-09-19T06:56:32.288Z,96596.84
2022-09-19T06:58:33.920Z,96616.41
2022-09-19T07:00:35.958Z,96625.25
2022-09-19T07:02:37.666Z,96625.41
2022-09-19T07:04:39.317Z,96631.97
2022-09-19T07:06:44.781Z,96637.13
2022-09-19T07:08:47.083Z,96620.06
2022-09-19T07:10:48.779Z,96603.19
2022-09-19T07:12:57.079Z,96616.56
2022-09-19T07:15:00.283Z,96621.75
2022-09-19T07:17:02.109Z,96628.94
2022-09-19T07:19:03.861Z,96624.59
2022-09-19T07:21:05.931Z,96616.22
2022-09-19T07:23:12.959Z,96627.22
2022-09-19T07:25:18.406Z,96641.03
2022-09-19T07:27:20.664Z,96632.84
2022-09-19T07:29:22.328Z,96658.56
2022-09-19T07:31:24.559Z,96643.53
2022-09-19T07:33:26.746Z,96629.50
2022-09-19T07:35:34.204Z,96628.13
2022-09-19T07:37:36.952Z,96633.13
2022-09-19T07:40:01.252Z,96628.03
2022-09-19T07:42:01.599Z,96613.19
2022-09-19T07:44:03.573Z,96643.44
2022-09-19T07:46:05.386Z,96642.44
2022-09-19T07:48:07.237Z,96626.75
2022-09-19T07:50:09.219Z,96635.41
2022-09-19T07:52:10.882Z,96639.78
2022-09-19T07:54:12.636Z,96657.00
2022-09-19T07:56:14.462Z,96651.84
2022-09-19T07:58:16.091Z,96644.84
2022-09-19T08:00:18.027Z,96644.63
2022-09-19T08:02:19.766Z,96642.78
2022-09-19T08:04:21.455Z,96657.56
2022-09-19T08:06:23.139Z,96645.19
2022-09-19T08:08:24.820Z,96656.72
2022-09-19T08:10:26.450Z,96652.56
2022-09-19T08:12:28.197Z,96647.19
2022-09-19T08:14:29.965Z,96657.44
2022-09-19T08:16:31.798Z,96666.94
2022-09-19T08:18:33.506Z,96651.94
2022-09-19T08:20:36.344Z,96672.94
2022-09-19T08:22:38.017Z,96659.22
2022-09-19T08:24:39.677Z,96655.34
2022-09-19T08:26:41.408Z,96675.09
2022-09-19T08:28:43.086Z,96654.69
2022-09-19T08:30:44.827Z,96674.59
2022-09-19T08:32:49.903Z,96649.25
2022-09-19T08:34:51.582Z,96667.44
2022-09-19T08:36:53.250Z,96660.22
2022-09-19T08:38:54.934Z,96661.22
2022-09-19T08:41:08.592Z,96654.06
2022-09-19T08:43:32.770Z,96651.38
2022-09-19T08:45:37.343Z,96661.88
2022-09-19T08:47:39.079Z,96657.84
2022-09-19T08:49:44.982Z,96667.72
2022-09-19T08:52:07.534Z,96662.53
2022-09-19T08:54:17.275Z,96657.19
2022-09-19T08:56:18.946Z,96671.22
2022-09-19T08:58:21.396Z,96668.38
2022-09-19T09:00:24.252Z,96668.38
2022-09-19T09:03:04.190Z,96651.47
2022-09-19T09:05:08.656Z,96663.84
2022-09-19T09:07:19.150Z,96667.16
2022-09-19T09:09:48.530Z,96671.66
2022-09-19T09:11:59.190Z,96657.47
2022-09-19T09:14:24.070Z,96658.13
2022-09-19T09:16:43.805Z,96657.75
2022-09-19T09:18:54.805Z,96654.06
2022-09-19T09:21:20.849Z,96655.06
2022-09-19T09:23:38.055Z,96672.97
2022-09-19T09:25:41.360Z,96679.16
2022-09-19T09:27:54.265Z,96672.31
2022-09-19T09:29:57.119Z,96684.50
2022-09-19T09:32:20.454Z,96685.34
2022-09-19T09:34:32.070Z,96683.66
2022-09-19T09:36:39.061Z,96687.16
2022-09-19T09:38:42.372Z,96692.34
2022-09-19T09:40:50.572Z,96682.47
2022-09-19T09:42:57.829Z,96691.97
2022-09-19T09:45:03.994Z,96683.13
2022-09-19T09:47:08.819Z,96692.84
2022-09-19T09:49:11.168Z,96690.16
2022-09-19T09:51:41.037Z,96681.75
2022-09-19T09:53:48.729Z,96685.63
2022-09-19T09:55:54.330Z,96701.69
2022-09-19T09:58:18.052Z,96682.13
2022-09-19T10:00:19.900Z,96689.97
2022-09-19T10:02:56.897Z,96682.13
2022-09-19T10:05:01.719Z,96681.09
2022-09-19T10:07:12.423Z,96678.91
2022-09-19T10:09:21.221Z,96675.59
2022-09-19T10:14:03.874Z,96695.31
2022-09-19T10:16:05.780Z,96691.16
2022-09-19T10:18:09.750Z,96682.13
2022-09-19T10:20:17.769Z,96686.47
2022-09-19T10:22:19.481Z,96680.94
2022-09-19T10:24:52.030Z,96707.69
2022-09-19T10:26:57.022Z,96687.09
2022-09-19T10:28:58.642Z,96689.97
2022-09-19T10:31:02.370Z,96707.69
2022-09-19T10:33:24.311Z,96682.97
2022-09-19T10:35:35.872Z,96686.47
2022-09-19T10:37:37.553Z,96680.09
2022-09-19T10:39:43.122Z,96671.06
2022-09-19T10:41:44.833Z,96675.38
2022-09-19T10:43:48.252Z,96680.56
2022-09-19T10:45:50.013Z,96678.72
2022-09-19T10:47:52.488Z,96679.91
2022-09-19T10:49:54.135Z,96680.09
2022-09-19T10:51:55.913Z,96668.56
2022-09-19T10:53:57.547Z,96672.91
2022-09-19T10:56:02.385Z,96660.34
2022-09-19T10:58:11.558Z,96654.19
2022-09-19T11:00:26.399Z,96655.00
2022-09-19T11:02:28.105Z,96647.63
2022-09-19T11:04:29.793Z,96655.66
2022-09-19T11:06:32.355Z,96663.69
2022-09-19T11:08:39.577Z,96651.13
2022-09-19T11:10:42.238Z,96661.66
2022-09-19T11:12:43.899Z,96640.44
2022-09-19T11:14:46.899Z,96654.63
2022-09-19T11:17:01.940Z,96668.66
2022-09-19T11:19:38.100Z,96655.47
2022-09-19T11:21:47.234Z,96653.63
2022-09-19T11:24:07.187Z,96661.00
2022-09-19T11:26:24.667Z,96662.88
2022-09-19T11:28:48.530Z,96667.56
2022-09-19T11:30:59.290Z,96667.72
2022-09-19T11:36:11.590Z,96664.28
2022-09-19T11:41:36.382Z,96648.72
2022-09-19T11:43:46.936Z,96663.56
2022-09-19T11:45:48.642Z,96655.44
2022-09-19T11:48:34.336Z,96655.28
2022-09-19T11:51:06.419Z,96674.16
2022-09-19T11:53:40.732Z,96658.50
2022-09-19T11:56:09.382Z,96652.94
2022-09-19T11:58:24.452Z,96660.97
2022-09-19T12:00:27.571Z,96661.28
2022-09-19T12:02:55.641Z,96667.44
2022-09-19T12:05:25.963Z,96656.75
2022-09-19T12:08:02.739Z,96657.41
2022-09-19T12:10:17.521Z,96676.78
2022-09-19T12:12:22.870Z,96664.41
2022-09-19T12:14:39.701Z,96657.41
2022-09-19T12:17:02.115Z,96655.38
2022-09-19T12:19:08.630Z,96664.03
2022-09-19T12:21:10.709Z,96666.53
2022-09-19T12:23:17.695Z,96677.06
2022-09-19T12:25:26.228Z,96664.88
2022-09-19T12:27:43.701Z,96679.91
2022-09-19T12:30:17.323Z,96672.91
2022-09-19T12:32:46.015Z,96675.59
2022-09-19T12:35:01.032Z,96669.38
2022-09-19T12:37:16.768Z,96693.47
2022-09-19T12:39:27.973Z,96672.44
2022-09-19T12:41:54.240Z,96679.09
2022-09-19T12:44:17.047Z,96685.31
2022-09-19T12:46:36.168Z,96673.31
2022-09-19T12:49:00.742Z,96679.88
2022-09-19T12:51:02.558Z,96689.75
2022-09-19T12:53:36.461Z,96694.69
2022-09-19T12:55:41.534Z,96688.44
2022-09-19T12:57:46.055Z,96690.97
2022-09-19T12:59:47.882Z,96712.88
2022-09-19T13:02:00.743Z,96709.34
2022-09-19T13:04:17.466Z,96706.44
2022-09-19T13:06:24.636Z,96706.13
2022-09-19T13:09:06.375Z,96701.47
2022-09-19T13:11:16.992Z,96707.72
2022-09-19T13:13:30.407Z,96719.16
2022-09-19T13:15:48.470Z,96711.25
2022-09-19T13:17:50.235Z,96708.56
2022-09-19T13:19:52.988Z,96727.59
2022-09-19T13:21:54.749Z,96706.38
2022-09-19T13:23:59.826Z,96710.00
2022-09-19T13:26:13.305Z,96698.31
2022-09-19T13:28:21.236Z,96723.19
2022-09-19T13:30:45.461Z,96722.38
2022-09-19T13:32:56.666Z,96716.44
2022-09-19T13:35:07.465Z,96730.16
2022-09-19T13:37:27.642Z,96737.41
2022-09-19T13:39:54.393Z,96735.47
2022-09-19T13:41:56.273Z,96745.34
2022-09-19T13:44:15.640Z,96736.78
2022-09-19T13:46:22.304Z,96731.03
2022-09-19T13:48:52.751Z,96744.69
2022-09-19T13:51:06.201Z,96744.88
2022-09-19T13:53:32.279Z,96746.53
2022-09-19T13:55:36.842Z,96746.06
2022-09-19T13:57:38.728Z,96753.53
2022-09-19T14:00:10.841Z,96752.44
2022-09-19T14:02:12.735Z,96753.31
2022-09-19T14:04:16.606Z,96747.41
2022-09-19T14:06:29.474Z,96747.28
2022-09-19T14:10:53.668Z,96755.50
2022-09-19T14:12:57.382Z,96758.44
2022-09-19T14:14:59.365Z,96759.88
2022-09-19T14:17:33.871Z,96774.31
2022-09-19T14:19:50.867Z,96767.72
2022-09-19T14:21:53.112Z,96758.38
2022-09-19T14:24:00.139Z,96772.13
2022-09-19T14:26:13.962Z,96777.66
2022-09-19T14:28:21.528Z,96781.38
2022-09-19T14:30:29.137Z,96793.78
2022-09-19T14:32:32.921Z,96778.78
2022-09-19T14:34:55.795Z,96782.59
2022-09-19T14:37:18.520Z,96777.09
2022-09-19T14:39:50.007Z,96788.47
2022-09-19T14:42:07.762Z,96799.88
2022-09-19T14:44:47.005Z,96796.41
2022-09-19T14:46:55.313Z,96802.28
2022-09-19T14:49:04.127Z,96802.38
2022-09-19T14:51:44.657Z,96807.31
2022-09-19T14:53:46.431Z,96815.25
2022-09-19T14:55:50.525Z,96823.91
2022-09-19T14:57:52.300Z,96804.53
2022-09-19T14:59:54.264Z,96804.41
2022-09-19T15:01:56.156Z,96844.38
2022-09-19T15:04:02.418Z,96827.38
2022-09-19T15:06:16.490Z,96821.03
2022-09-19T15:08:21.110Z,96813.63
2022-09-19T15:10:33.076Z,96815.91
2022-09-19T15:12:35.648Z,96818.69
2022-09-19T15:14:42.676Z,96827.53
2022-09-19T15:16:44.383Z,96830.66
2022-09-19T15:18:48.235Z,96835.63
2022-09-19T15:20:55.926Z,96817.84
2022-09-19T15:22:58.431Z,96841.34
2022-09-19T15:25:05.907Z,96849.16
2022-09-19T15:27:17.502Z,96857.44
2022-09-19T15:29:29.508Z,96862.88
2022-09-19T15:31:32.895Z,96862.59
2022-09-19T15:33:34.592Z,96856.78
2022-09-19T15:35:41.527Z,96881.84
2022-09-19T15:37:45.261Z,96865.81
2022-09-19T15:39:48.486Z,96864.81
2022-09-19T15:41:50.284Z,96871.38
2022-09-19T15:43:51.976Z,96867.19
2022-09-19T15:45:58.463Z,96884.84
2022-09-19T15:48:02.878Z,96920.72
2022-09-19T15:50:04.835Z,96884.75
2022-09-19T15:52:35.744Z,96911.75
2022-09-19T15:54:46.856Z,96914.44
2022-09-19T15:56:48.981Z,96887.97
2022-09-19T15:58:58.829Z,96901.31
2022-09-19T16:01:14.753Z,96919.41
2022-09-19T16:03:18.978Z,96940.63
2022-09-19T16:05:31.592Z,96919.47
2022-09-19T16:07:38.062Z,96923.56
2022-09-19T16:09:42.237Z,96916.72
2022-09-19T16:11:44.966Z,96954.69
2022-09-19T16:13:46.632Z,96954.31
2022-09-19T16:15:48.455Z,96947.28
2022-09-19T16:17:52.922Z,96935.88
2022-09-19T16:19:54.957Z,96943.84
2022-09-19T16:21:56.697Z,96950.25
2022-09-19T16:23:58.467Z,96938.22
2022-09-19T16:26:01.591Z,96949.22
2022-09-19T16:28:17.024Z,96955.16
2022-09-19T16:30:18.948Z,96965.59
2022-09-19T16:32:20.981Z,96953.78
2022-09-19T16:34:29.403Z,96963.59
2022-09-19T16:36:31.295Z,96971.72
2022-09-19T16:38:35.664Z,96976.16
2022-09-19T16:40:37.571Z,96982.03
2022-09-19T16:42:39.594Z,96982.53
2022-09-19T16:44:48.521Z,96998.28
2022-09-19T16:46:51.022Z,96985.88
2022-09-19T16:48:52.928Z,96997.38
2022-09-19T16:50:54.703Z,97005.75
2022-09-19T16:52:56.740Z,97009.59
2022-09-19T16:54:59.939Z,97011.50
2022-09-19T16:57:01.792Z,97019.03
2022-09-19T16:59:09.980Z,97025.00
2022-09-19T17:01:12.131Z,97027.28
2022-09-19T17:03:13.890Z,97037.06
2022-09-19T17:05:18.249Z,97034.34
2022-09-19T17:07:19.744Z,97034.97
2022-09-19T17:09:21.586Z,97045.19
2022-09-19T17:11:23.641Z,97051.06
2022-09-19T17:13:25.822Z,97049.50
2022-09-19T17:15:50.134Z,97053.06
2022-09-19T17:17:52.166Z,97053.59
2022-09-19T17:19:54.391Z,97049.84
2022-09-19T17:21:56.339Z,97047.31
2022-09-19T17:23:58.054Z,97049.41
2022-09-19T17:25:59.748Z,97081.97
2022-09-19T17:28:02.260Z,97072.13
2022-09-19T17:30:04.954Z,97077.06
2022-09-19T17:32:07.370Z,97073.59
2022-09-19T17:34:10.039Z,97080.88
2022-09-19T17:36:13.282Z,97058.13
2022-09-19T17:38:18.075Z,97091.63
2022-09-19T17:40:20.005Z,97095.25
2022-09-19T17:42:25.298Z,97107.78
2022-09-19T17:44:27.106Z,97104.59
2022-09-19T17:46:28.907Z,97107.97
2022-09-19T17:48:30.950Z,97106.63
2022-09-19T17:50:32.765Z,97087.81
2022-09-19T17:52:34.545Z,97095.59
2022-09-19T17:54:38.907Z,97110.94
2022-09-19T17:56:40.571Z,97125.28
2022-09-19T17:58:42.602Z,97137.44
2022-09-19T18:00:44.678Z,97120.06
2022-09-19T18:02:46.806Z,97127.63
2022-09-19T18:04:48.542Z,97140.41
2022-09-19T18:06:50.765Z,97130.63
2022-09-19T18:08:52.633Z,97165.47
2022-09-19T18:11:01.715Z,97146.97
2022-09-19T18:13:04.131Z,97144.81
2022-09-19T18:15:06.521Z,97167.56
2022-09-19T18:17:08.343Z,97165.00
2022-09-19T18:19:10.324Z,97170.72
2022-09-19T18:21:12.053Z,97183.88
2022-09-19T18:23:14.296Z,97176.53
2022-09-19T18:25:17.324Z,97200.38
2022-09-19T18:27:19.487Z,97200.44
2022-09-19T18:29:21.400Z,97200.97
2022-09-19T18:31:23.629Z,97200.63
2022-09-19T18:33:25.851Z,97218.09
2022-09-19T18:35:27.790Z,97215.13
2022-09-19T18:37:29.866Z,97226.69
2022-09-19T18:39:31.678Z,97236.75
2022-09-19T18:41:33.376Z,97245.16
2022-09-19T18:43:35.664Z,97234.44
2022-09-19T18:45:37.527Z,97251.50
2022-09-19T18:47:39.736Z,97244.50
2022-09-19T18:49:41.581Z,97257.06
2022-09-19T18:51:43.435Z,97263.63
2022-09-19T18:53:46.064Z,97251.22
2022-09-19T18:55:54.236Z,97259.25
2022-09-19T18:57:56.221Z,97278.88
2022-09-19T18:59:58.173Z,97283.41
2022-09-19T19:02:00.139Z,97276.38
2022-09-19T19:04:02.162Z,97300.31
2022-09-19T19:06:08.683Z,97314.75
2022-09-19T19:08:16.144Z,97296.16
2022-09-19T19:10:17.859Z,97315.94
2022-09-19T19:12:35.908Z,97306.88
2022-09-19T19:14:41.374Z,97323.97
2022-09-19T19:16:43.404Z,97325.84
2022-09-19T19:18:46.323Z,97330.34
2022-09-19T19:20:48.258Z,97333.03
2022-09-19T19:22:49.996Z,97339.41
2022-09-19T19:24:51.884Z,97344.78
2022-09-19T19:26:54.532Z,97345.75
2022-09-19T19:28:56.519Z,97362.03
2022-09-19T19:30:59.388Z,97360.19
2022-09-19T19:33:01.219Z,97362.22
2022-09-19T19:35:03.414Z,97370.25
2022-09-19T19:37:05.360Z,97384.69
2022-09-19T19:39:07.179Z,97385.50
2022-09-19T19:41:11.972Z,97399.75
2022-09-19T19:43:13.868Z,97395.41
2022-09-19T19:45:15.617Z,97400.78
2022-09-19T19:47:17.387Z,97394.56
2022-09-19T19:49:19.175Z,97399.94
2022-09-19T19:51:22.125Z,97411.50
2022-09-19T19:53:23.964Z,97426.56
2022-09-19T19:55:25.818Z,97433.41
2022-09-19T19:57:27.644Z,97428.88
2022-09-19T19:59:29.436Z,97430.56
2022-09-19T20:01:32.314Z,97440.63
2022-09-19T20:03:37.249Z,97434.25
2022-09-19T20:05:46.769Z,97436.28
2022-09-19T20:07:48.464Z,97448.69
2022-09-19T20:09:50.120Z,97449.50
2022-09-19T20:11:51.841Z,97461.94
2022-09-19T20:13:54.594Z,97466.44
2022-09-19T20:16:12.836Z,97467.28
2022-09-19T20:18:14.582Z,97474.31
2022-09-19T20:20:16.286Z,97486.88
2022-09-19T20:22:18.052Z,97492.25
2022-09-19T20:24:25.434Z,97486.22
2022-09-19T20:26:28.817Z,97496.94
2022-09-19T20:28:30.539Z,97498.59
2022-09-19T20:30:37.144Z,97499.47
2022-09-19T20:32:39.100Z,97525.41
2022-09-19T20:34:40.842Z,97515.72
2022-09-19T20:36:42.645Z,97514.69
2022-09-19T20:38:44.443Z,97521.75
2022-09-19T20:40:46.205Z,97513.88
2022-09-19T20:42:48.317Z,97532.81
2022-09-19T20:44:50.022Z,97528.44
2022-09-19T20:46:51.766Z,97521.44
2022-09-19T20:48:53.435Z,97533.16
2022-09-19T20:50:55.959Z,97542.22
2022-09-19T20:52:57.681Z,97533.34
2022-09-19T20:54:59.371Z,97551.25
2022-09-19T20:57:01.061Z,97550.25
2022-09-19T20:59:02.849Z,97550.25
2022-09-19T21:01:14.782Z,97555.63
2022-09-19T21:03:16.634Z,97558.28
2022-09-19T21:05:18.289Z,97560.97
2022-09-19T21:07:20.081Z,97585.94
2022-09-19T21:09:21.783Z,97585.09
2022-09-19T21:11:23.971Z,97582.44
2022-09-19T21:13:30.237Z,97578.06
2022-09-19T21:15:31.869Z,97588.78
2022-09-19T21:17:33.534Z,97598.50
2022-09-19T21:19:35.205Z,97599.50
2022-09-19T21:21:36.870Z,97599.50
2022-09-19T21:23:42.248Z,97600.38
2022-09-19T21:25:43.971Z,97605.72
2022-09-19T21:27:45.751Z,97615.59
2022-09-19T21:29:47.426Z,97621.13
2022-09-19T21:31:49.211Z,97617.63
2022-09-19T21:33:54.830Z,97623.81
2022-09-19T21:35:57.555Z,97621.13
2022-09-19T21:37:59.244Z,97631.03
2022-09-19T21:40:01.096Z,97626.50
2022-09-19T21:42:02.832Z,97622.66
2022-09-19T21:44:05.874Z,97636.06
2022-09-19T21:46:13.007Z,97630.34
2022-09-19T21:48:14.747Z,97639.22
2022-09-19T21:50:16.445Z,97641.75
2022-09-19T21:52:18.132Z,97657.50
2022-09-19T21:54:19.828Z,97655.84
2022-09-19T21:56:21.661Z,97647.94
2022-09-19T21:58:23.364Z,97655.16
2022-09-19T22:00:25.084Z,97658.66
2022-09-19T22:02:26.860Z,97676.59
2022-09-19T22:04:28.549Z,97680.94
2022-09-19T22:06:30.429Z,97681.63
2022-09-19T22:08:32.146Z,97686.00
2022-09-19T22:10:35.086Z,97697.72
2022-09-19T22:12:36.718Z,97698.72
2022-09-19T22:14:38.401Z,97708.63
2022-09-19T22:16:40.269Z,97705.75
2022-09-19T22:18:42.198Z,97708.44
2022-09-19T22:20:43.936Z,97711.13
2022-09-19T22:22:45.648Z,97729.06
2022-09-19T22:24:47.274Z,97737.13
2022-09-19T22:26:49.006Z,97729.91
2022-09-19T22:28:51.928Z,97711.47
2022-09-19T22:30:58.093Z,97727.56
2022-09-19T22:32:59.766Z,97741.78
2022-09-19T22:35:01.515Z,97749.00
2022-09-19T22:37:03.283Z,97742.63
2022-09-19T22:39:04.940Z,97748.00
2022-09-19T22:41:08.228Z,97767.78
2022-09-19T22:43:09.907Z,97768.47
2022-09-19T22:45:11.616Z,97784.56
2022-09-19T22:47:13.235Z,97779.19
2022-09-19T22:49:14.901Z,97787.09
2022-09-19T22:51:18.492Z,97794.94
2022-09-19T22:53:20.158Z,97799.47
2022-09-19T22:55:21.927Z,97800.31
2022-09-19T22:57:23.705Z,97819.25
2022-09-19T22:59:25.402Z,97815.72
2022-09-19T23:01:29.419Z,97824.63
2022-09-19T23:03:31.197Z,97822.44
2022-09-19T23:05:32.922Z,97817.06
2022-09-19T23:07:34.631Z,97844.91
2022-09-19T23:09:36.483Z,97837.00
2022-09-19T23:11:38.292Z,97837.84
2022-09-19T23:13:39.956Z,97843.22
2022-09-19T23:15:41.633Z,97843.41
2022-09-19T23:17:43.428Z,97849.41
2022-09-19T23:19:45.091Z,97847.75
2022-09-19T23:21:49.237Z,97846.56
2022-09-19T23:23:51.068Z,97861.84
2022-09-19T23:25:52.718Z,97860.13
2022-09-19T23:27:54.416Z,97872.56
2022-09-19T23:29:56.108Z,97880.75
2022-09-19T23:31:57.879Z,97896.84
2022-09-19T23:33:59.685Z,97894.16
2022-09-19T23:36:02.960Z,97900.22
2022-09-19T23:38:04.682Z,97895.19
2022-09-19T23:40:07.062Z,97911.56
2022-09-19T23:42:08.843Z,97901.19
2022-09-19T23:44:10.604Z,97910.25
2022-09-19T23:46:12.404Z,97907.72
2022-09-19T23:48:14.216Z,97903.19
2022-09-19T23:50:15.917Z,97919.28
2022-09-19T23:52:17.550Z,97917.28
2022-09-19T23:54:19.226Z,97919.94
2022-09-19T23:56:21.872Z,97929.00
2022-09-19T23:58:23.530Z,97928.00
